createdAt,value
2018-03-08T00:03:21.424Z,100264.05
2018-03-08T00:05:50.472Z,100266.15
2018-03-08T00:08:19.479Z,100271.92
2018-03-08T00:10:48.708Z,100275.88
2018-03-08T00:13:17.768Z,100275.68
2018-03-08T00:15:47.619Z,100261.16
2018-03-08T00:18:16.863Z,100256.20
2018-03-08T00:20:45.712Z,100247.13
2018-03-08T00:23:14.709Z,100247.59
2018-03-08T00:25:43.757Z,100243.87
2018-03-08T00:28:12.714Z,100243.38
2018-03-08T00:30:41.712Z,100239.59
2018-03-08T00:37:01.770Z,100222.70
2018-03-08T00:39:30.727Z,100221.45
2018-03-08T00:41:59.755Z,100220.91
2018-03-08T00:44:29.308Z,100220.64
2018-03-08T00:46:59.052Z,100225.35
2018-03-08T00:49:28.482Z,100220.05
2018-03-08T00:51:57.728Z,100216.02
2018-03-08T00:54:26.651Z,100213.17
2018-03-08T00:56:55.651Z,100204.45
2018-03-08T00:59:24.666Z,100210.52
2018-03-08T01:03:11.652Z,100209.45
2018-03-08T01:05:41.468Z,100206.63
2018-03-08T01:08:10.467Z,100205.53
2018-03-08T01:10:39.655Z,100206.70
2018-03-08T01:13:08.747Z,100210.02
2018-03-08T01:15:37.740Z,100205.58
2018-03-08T01:18:06.709Z,100196.46
2018-03-08T01:20:35.718Z,100192.80
2018-03-08T01:23:05.570Z,100196.73
2018-03-08T01:25:34.647Z,100197.59
2018-03-08T01:28:03.651Z,100188.84
2018-03-08T01:30:32.668Z,100207.66
2018-03-08T01:33:02.636Z,100215.59
2018-03-08T01:35:31.701Z,100215.80
2018-03-08T01:38:01.299Z,100212.72
2018-03-08T01:40:30.525Z,100220.64
2018-03-08T01:42:59.747Z,100221.01
2018-03-08T01:45:28.695Z,100219.19
2018-03-08T01:47:57.703Z,100228.83
2018-03-08T01:50:26.715Z,100237.81
2018-03-08T01:52:56.696Z,100239.45
2018-03-08T01:55:25.791Z,100251.73
2018-03-08T01:57:54.777Z,100250.28
2018-03-08T02:00:23.744Z,100255.24
2018-03-08T02:02:52.764Z,100252.03
2018-03-08T02:05:21.751Z,100246.59
2018-03-08T02:07:50.754Z,100239.48
2018-03-08T02:10:19.746Z,100246.52
2018-03-08T02:14:39.721Z,100243.80
2018-03-08T02:17:08.724Z,100243.53
2018-03-08T02:19:37.727Z,100247.55
2018-03-08T02:22:06.667Z,100246.09
2018-03-08T02:24:35.757Z,100249.73
2018-03-08T02:27:05.031Z,100242.95
2018-03-08T02:29:33.589Z,100234.58
2018-03-08T02:32:02.644Z,100229.92
2018-03-08T02:34:31.653Z,100220.94
2018-03-08T02:37:00.678Z,100218.09
2018-03-08T02:39:29.639Z,100215.50
2018-03-08T02:41:58.645Z,100219.25
2018-03-08T02:44:27.688Z,100225.14
2018-03-08T02:46:56.696Z,100214.37
2018-03-08T02:49:25.691Z,100212.52
2018-03-08T02:51:54.656Z,100213.30
2018-03-08T02:56:13.164Z,100210.59
2018-03-08T02:58:42.739Z,100211.99
2018-03-08T03:01:11.732Z,100211.77
2018-03-08T03:03:41.160Z,100211.32
2018-03-08T03:06:11.529Z,100204.46
2018-03-08T03:08:40.859Z,100199.99
2018-03-08T03:13:15.433Z,100207.34
2018-03-08T03:16:45.626Z,100217.17
2018-03-08T03:19:14.901Z,100219.97
2018-03-08T03:21:43.564Z,100207.27
2018-03-08T03:24:13.569Z,100202.05
2018-03-08T03:26:43.043Z,100200.95
2018-03-08T03:29:11.747Z,100201.75
2018-03-08T03:31:40.903Z,100204.97
2018-03-08T03:34:09.571Z,100205.59
2018-03-08T03:36:38.803Z,100205.59
2018-03-08T03:39:08.230Z,100199.33
2018-03-08T03:41:37.743Z,100199.02
2018-03-08T03:46:09.665Z,100193.18
2018-03-08T03:48:38.653Z,100187.48
2018-03-08T03:51:07.660Z,100192.21
2018-03-08T03:53:36.891Z,100184.05
2018-03-08T03:56:06.448Z,100187.66
2018-03-08T04:00:29.669Z,100193.77
2018-03-08T04:02:58.737Z,100192.06
2018-03-08T04:05:51.579Z,100188.33
2018-03-08T04:08:21.349Z,100187.94
2018-03-08T04:10:50.735Z,100194.20
2018-03-08T04:13:20.163Z,100192.41
2018-03-08T04:15:48.725Z,100192.78
2018-03-08T04:20:34.803Z,100188.31
2018-03-08T04:24:55.718Z,100175.17
2018-03-08T04:27:25.786Z,100178.77
2018-03-08T04:29:54.762Z,100173.02
2018-03-08T04:32:24.461Z,100165.98
2018-03-08T04:34:54.113Z,100169.02
2018-03-08T04:37:23.724Z,100165.66
2018-03-08T04:39:52.863Z,100166.11
2018-03-08T04:45:09.704Z,100157.88
2018-03-08T04:47:38.780Z,100157.69
2018-03-08T04:52:49.715Z,100158.67
2018-03-08T04:55:18.703Z,100159.23
2018-03-08T04:57:49.188Z,100152.90
2018-03-08T05:00:18.676Z,100158.37
2018-03-08T05:02:47.704Z,100156.78
2018-03-08T05:07:04.710Z,100157.48
2018-03-08T05:09:33.747Z,100155.19
2018-03-08T05:12:02.688Z,100156.69
2018-03-08T05:14:31.691Z,100153.70
2018-03-08T05:17:00.842Z,100159.02
2018-03-08T05:19:29.863Z,100156.69
2018-03-08T05:21:58.964Z,100159.07
2018-03-08T05:24:27.482Z,100153.31
2018-03-08T05:26:56.684Z,100164.28
2018-03-08T05:29:25.859Z,100159.61
2018-03-08T05:31:54.730Z,100158.97
2018-03-08T05:34:23.675Z,100166.89
2018-03-08T05:36:52.688Z,100166.99
2018-03-08T05:39:21.713Z,100163.88
2018-03-08T05:41:50.723Z,100168.37
2018-03-08T05:44:19.743Z,100168.93
2018-03-08T05:46:48.869Z,100171.66
2018-03-08T05:49:18.482Z,100164.55
2018-03-08T05:51:47.616Z,100169.25
2018-03-08T05:55:39.665Z,100163.09
2018-03-08T05:58:08.694Z,100156.06
2018-03-08T06:00:37.746Z,100159.33
2018-03-08T06:03:06.674Z,100150.70
2018-03-08T06:05:35.721Z,100149.25
2018-03-08T06:08:04.683Z,100136.70
2018-03-08T06:10:33.672Z,100136.31
2018-03-08T06:13:02.667Z,100133.22
2018-03-08T06:15:31.692Z,100140.44
2018-03-08T06:18:00.667Z,100133.38
2018-03-08T06:20:29.684Z,100136.50
2018-03-08T06:22:58.608Z,100129.38
2018-03-08T06:25:27.620Z,100126.34
2018-03-08T06:27:56.663Z,100129.89
2018-03-08T06:30:25.681Z,100137.65
2018-03-08T06:32:54.684Z,100139.41
2018-03-08T06:35:23.629Z,100149.48
2018-03-08T06:37:52.663Z,100144.14
2018-03-08T06:40:21.636Z,100141.97
2018-03-08T06:42:50.642Z,100147.66
2018-03-08T06:47:17.627Z,100141.67
2018-03-08T06:51:52.695Z,100146.81
2018-03-08T06:54:22.581Z,100140.08
2018-03-08T06:56:51.635Z,100132.73
2018-03-08T07:02:09.691Z,100123.25
2018-03-08T07:06:00.723Z,100117.33
2018-03-08T07:08:29.691Z,100111.95
2018-03-08T07:10:59.030Z,100114.59
2018-03-08T07:13:28.428Z,100114.49
2018-03-08T07:15:57.635Z,100106.32
2018-03-08T07:18:26.623Z,100105.73
2018-03-08T07:24:39.627Z,100103.90
2018-03-08T07:27:09.631Z,100102.45
2018-03-08T07:29:39.317Z,100110.77
2018-03-08T07:32:08.621Z,100106.52
2018-03-08T07:34:37.679Z,100104.77
2018-03-08T07:37:06.636Z,100107.33
2018-03-08T07:39:36.455Z,100114.13
2018-03-08T07:42:49.627Z,100116.19
2018-03-08T07:45:18.641Z,100117.20
2018-03-08T07:47:47.611Z,100119.46
2018-03-08T07:50:16.632Z,100119.54
2018-03-08T07:52:45.651Z,100121.92
2018-03-08T07:56:25.665Z,100119.03
2018-03-08T07:58:54.601Z,100123.20
2018-03-08T08:01:23.601Z,100117.41
2018-03-08T08:03:52.643Z,100108.43
2018-03-08T08:09:29.413Z,100106.89
2018-03-08T08:11:58.615Z,100107.20
2018-03-08T08:14:27.683Z,100105.36
2018-03-08T08:16:56.730Z,100103.44
2018-03-08T08:19:25.666Z,100103.20
2018-03-08T08:21:54.682Z,100100.70
2018-03-08T08:24:23.659Z,100108.36
2018-03-08T08:26:52.654Z,100106.53
2018-03-08T08:29:21.715Z,100101.80
2018-03-08T08:31:50.707Z,100100.45
2018-03-08T08:34:19.720Z,100099.71
2018-03-08T08:36:48.697Z,100099.48
2018-03-08T08:39:18.599Z,100097.77
2018-03-08T08:41:47.659Z,100093.12
2018-03-08T08:44:16.705Z,100097.70
2018-03-08T08:46:45.669Z,100092.66
2018-03-08T08:49:14.666Z,100099.30
2018-03-08T08:51:43.635Z,100103.95
2018-03-08T08:56:28.837Z,100085.34
2018-03-08T08:58:57.644Z,100088.52
2018-03-08T09:01:28.592Z,100084.17
2018-03-08T09:03:57.772Z,100082.98
2018-03-08T09:06:26.681Z,100093.14
2018-03-08T09:08:55.662Z,100086.78
2018-03-08T09:11:24.724Z,100100.73
2018-03-08T09:13:53.841Z,100091.89
2018-03-08T09:16:22.632Z,100089.88
2018-03-08T09:18:51.755Z,100088.36
2018-03-08T09:21:20.642Z,100091.80
2018-03-08T09:23:49.726Z,100090.77
2018-03-08T09:26:19.685Z,100083.40
2018-03-08T09:28:48.747Z,100083.27
2018-03-08T09:31:17.709Z,100084.13
2018-03-08T09:33:46.646Z,100085.69
2018-03-08T09:36:15.631Z,100085.14
2018-03-08T09:38:44.600Z,100084.74
2018-03-08T09:41:13.697Z,100086.42
2018-03-08T09:43:43.199Z,100082.25
2018-03-08T09:46:12.667Z,100084.09
2018-03-08T09:48:41.849Z,100083.61
2018-03-08T09:51:10.704Z,100088.16
2018-03-08T09:53:39.659Z,100084.73
2018-03-08T09:56:08.768Z,100082.81
2018-03-08T09:58:38.194Z,100083.20
2018-03-08T10:01:07.700Z,100085.06
2018-03-08T10:03:37.203Z,100090.41
2018-03-08T10:06:07.437Z,100093.98
2018-03-08T10:08:36.687Z,100097.20
2018-03-08T10:11:05.995Z,100082.39
2018-03-08T10:13:34.522Z,100100.95
2018-03-08T10:16:03.671Z,100095.41
2018-03-08T10:18:32.598Z,100091.75
2018-03-08T10:21:01.635Z,100090.72
2018-03-08T10:23:31.421Z,100096.27
2018-03-08T10:26:00.700Z,100094.13
2018-03-08T10:28:29.644Z,100091.25
2018-03-08T10:30:59.220Z,100090.45
2018-03-08T10:33:28.637Z,100089.08
2018-03-08T10:35:57.647Z,100080.13
2018-03-08T10:38:26.716Z,100080.93
2018-03-08T10:40:55.785Z,100088.59
2018-03-08T10:43:24.743Z,100090.10
2018-03-08T10:45:54.285Z,100089.06
2018-03-08T10:48:23.705Z,100086.56
2018-03-08T10:50:52.700Z,100086.34
2018-03-08T10:56:11.464Z,100082.33
2018-03-08T10:58:40.492Z,100086.48
2018-03-08T11:01:09.669Z,100088.89
2018-03-08T11:03:44.510Z,100095.22
2018-03-08T11:06:20.565Z,100104.27
2018-03-08T11:08:49.697Z,100102.64
2018-03-08T11:11:19.511Z,100093.27
2018-03-08T11:13:48.694Z,100106.48
2018-03-08T11:16:17.755Z,100105.82
2018-03-08T11:18:46.856Z,100111.09
2018-03-08T11:21:16.478Z,100117.02
2018-03-08T11:23:46.604Z,100115.05
2018-03-08T11:26:15.709Z,100111.22
2018-03-08T11:28:44.735Z,100113.52
2018-03-08T11:31:43.733Z,100117.83
2018-03-08T11:34:12.843Z,100115.13
2018-03-08T11:36:41.708Z,100114.25
2018-03-08T11:39:10.675Z,100114.43
2018-03-08T11:41:39.671Z,100118.87
2018-03-08T11:44:08.961Z,100120.20
2018-03-08T11:46:37.691Z,100121.63
2018-03-08T11:49:06.720Z,100118.19
2018-03-08T11:51:36.738Z,100129.58
2018-03-08T11:54:05.681Z,100124.36
2018-03-08T11:56:34.645Z,100140.61
2018-03-08T11:59:03.684Z,100134.94
2018-03-08T12:01:32.658Z,100138.62
2018-03-08T12:04:02.715Z,100133.71
2018-03-08T12:06:31.755Z,100132.13
2018-03-08T12:09:00.843Z,100140.13
2018-03-08T12:11:29.867Z,100140.38
2018-03-08T12:13:58.757Z,100144.75
2018-03-08T12:16:27.712Z,100143.84
2018-03-08T12:18:56.764Z,100146.30
2018-03-08T12:21:26.039Z,100146.86
2018-03-08T12:23:54.607Z,100144.31
2018-03-08T12:26:24.303Z,100146.39
2018-03-08T12:31:36.723Z,100150.30
2018-03-08T12:34:06.225Z,100150.71
2018-03-08T12:36:35.693Z,100146.78
2018-03-08T12:39:05.665Z,100147.89
2018-03-08T12:41:35.636Z,100154.28
2018-03-08T12:44:04.700Z,100146.28
2018-03-08T12:46:33.730Z,100154.44
2018-03-08T12:49:03.583Z,100147.53
2018-03-08T12:51:32.733Z,100154.89
2018-03-08T12:54:01.730Z,100160.90
2018-03-08T12:56:30.716Z,100169.19
2018-03-08T12:59:00.137Z,100177.97
2018-03-08T13:01:29.707Z,100185.59
2018-03-08T13:03:59.385Z,100189.58
2018-03-08T13:06:29.068Z,100199.24
2018-03-08T13:08:58.743Z,100207.73
2018-03-08T13:11:27.728Z,100207.00
2018-03-08T13:13:56.851Z,100213.94
2018-03-08T13:16:25.675Z,100206.47
2018-03-08T13:18:55.612Z,100211.32
2018-03-08T13:21:24.697Z,100216.80
2018-03-08T13:23:53.657Z,100216.14
2018-03-08T13:26:22.649Z,100220.55
2018-03-08T13:28:51.739Z,100225.91
2018-03-08T13:31:21.735Z,100216.70
2018-03-08T13:35:08.502Z,100214.22
2018-03-08T13:37:37.615Z,100216.59
2018-03-08T13:40:06.856Z,100217.43
2018-03-08T13:42:35.730Z,100217.83
2018-03-08T13:45:04.849Z,100223.30
2018-03-08T13:47:33.723Z,100230.52
2018-03-08T13:50:02.715Z,100230.87
2018-03-08T13:52:31.771Z,100225.27
2018-03-08T13:55:47.656Z,100218.89
2018-03-08T13:58:16.744Z,100229.59
2018-03-08T14:00:45.664Z,100228.52
2018-03-08T14:03:14.689Z,100229.93
2018-03-08T14:05:43.705Z,100228.39
2018-03-08T14:08:12.701Z,100230.41
2018-03-08T14:10:41.649Z,100235.42
2018-03-08T14:13:10.675Z,100237.44
2018-03-08T14:15:39.671Z,100239.23
2018-03-08T14:18:08.630Z,100244.34
2018-03-08T14:20:37.671Z,100243.17
2018-03-08T14:23:06.681Z,100246.91
2018-03-08T14:25:36.603Z,100245.72
2018-03-08T14:28:05.631Z,100247.03
2018-03-08T14:30:34.693Z,100246.48
2018-03-08T14:33:03.647Z,100249.64
2018-03-08T14:38:18.680Z,100251.50
2018-03-08T14:40:47.615Z,100250.94
2018-03-08T14:43:16.648Z,100259.65
2018-03-08T14:45:45.620Z,100263.47
2018-03-08T14:48:14.635Z,100270.50
2018-03-08T14:52:40.694Z,100277.34
2018-03-08T14:55:09.677Z,100283.86
2018-03-08T14:57:38.655Z,100290.67
2018-03-08T15:00:07.687Z,100295.75
2018-03-08T15:02:36.694Z,100296.56
2018-03-08T15:05:05.684Z,100304.63
2018-03-08T15:07:34.698Z,100306.42
2018-03-08T15:11:50.417Z,100308.64
2018-03-08T15:14:19.459Z,100321.70
2018-03-08T15:16:48.683Z,100324.24
2018-03-08T15:19:17.646Z,100326.25
2018-03-08T15:21:46.662Z,100334.16
2018-03-08T15:26:16.432Z,100341.76
2018-03-08T15:28:45.437Z,100346.78
2018-03-08T15:31:14.707Z,100356.52
2018-03-08T15:33:43.627Z,100356.98
2018-03-08T15:37:08.727Z,100362.27
2018-03-08T15:39:37.631Z,100367.72
2018-03-08T15:42:06.617Z,100369.41
2018-03-08T15:44:35.632Z,100371.12
2018-03-08T15:47:04.658Z,100374.22
2018-03-08T15:49:34.186Z,100379.08
2018-03-08T15:55:05.680Z,100385.53
2018-03-08T15:57:34.897Z,100391.62
2018-03-08T16:00:03.503Z,100394.53
2018-03-08T16:02:32.731Z,100401.52
2018-03-08T16:05:01.722Z,100404.50
2018-03-08T16:10:53.788Z,100414.84
2018-03-08T16:13:22.745Z,100417.14
2018-03-08T16:15:52.169Z,100415.74
2018-03-08T16:18:24.725Z,100419.55
2018-03-08T16:20:55.448Z,100431.27
2018-03-08T16:23:24.701Z,100431.53
2018-03-08T16:25:53.726Z,100436.94
2018-03-08T16:28:23.194Z,100441.38
2018-03-08T16:30:52.672Z,100450.66
2018-03-08T16:33:22.202Z,100454.08
2018-03-08T16:35:56.311Z,100459.70
2018-03-08T16:38:25.892Z,100460.97
2018-03-08T16:40:54.538Z,100470.19
2018-03-08T16:43:23.748Z,100476.86
2018-03-08T16:45:53.523Z,100480.13
2018-03-08T16:48:22.891Z,100484.86
2018-03-08T17:02:11.512Z,100513.73
2018-03-08T17:04:40.673Z,100516.47
2018-03-08T17:07:10.546Z,100521.39
2018-03-08T17:09:39.621Z,100524.91
2018-03-08T17:12:08.661Z,100535.27
2018-03-08T17:17:19.520Z,100536.09
2018-03-08T17:22:36.711Z,100551.56
2018-03-08T17:25:05.643Z,100561.12
2018-03-08T17:27:34.653Z,100566.78
2018-03-08T17:30:03.651Z,100576.24
2018-03-08T17:32:32.644Z,100577.88
2018-03-08T17:35:01.685Z,100584.03
2018-03-08T17:42:56.296Z,100590.28
2018-03-08T17:45:25.702Z,100601.84
2018-03-08T17:47:54.701Z,100607.98
2018-03-08T17:50:23.647Z,100607.42
2018-03-08T17:52:52.671Z,100601.18
2018-03-08T17:58:13.056Z,100615.59
2018-03-08T18:00:41.514Z,100625.28
2018-03-08T18:03:10.575Z,100631.23
2018-03-08T18:05:39.638Z,100632.20
2018-03-08T18:08:08.624Z,100632.72
2018-03-08T18:10:37.659Z,100642.70
2018-03-08T18:13:06.627Z,100646.07
2018-03-08T18:15:35.620Z,100655.18
2018-03-08T18:18:04.583Z,100659.95
2018-03-08T18:20:33.626Z,100659.81
2018-03-08T18:23:01.651Z,100654.80
2018-03-08T18:25:30.620Z,100665.70
2018-03-08T18:27:59.602Z,100662.80
2018-03-08T18:34:07.749Z,100672.65
2018-03-08T18:36:36.617Z,100677.30
2018-03-08T18:40:09.669Z,100682.22
2018-03-08T18:42:38.660Z,100688.83
2018-03-08T18:46:13.575Z,100690.66
2018-03-08T18:49:32.623Z,100713.61
2018-03-08T18:53:58.643Z,100718.17
2018-03-08T18:56:27.628Z,100725.03
2018-03-08T18:58:56.703Z,100727.15
2018-03-08T19:01:25.624Z,100735.63
2018-03-08T19:03:53.560Z,100739.77
2018-03-08T19:06:22.623Z,100741.89
2018-03-08T19:08:51.633Z,100749.92
2018-03-08T19:11:20.647Z,100757.22
2018-03-08T19:13:49.634Z,100760.84
2018-03-08T19:16:18.667Z,100761.56
2018-03-08T19:18:47.627Z,100768.34
2018-03-08T19:21:16.619Z,100773.39
2018-03-08T19:28:30.667Z,100787.95
2018-03-08T20:15:37.078Z,100855.42
2018-03-08T20:18:05.673Z,100864.91
2018-03-08T20:20:34.467Z,100869.47
2018-03-08T20:23:03.499Z,100876.24
2018-03-08T20:25:32.535Z,100881.45
2018-03-08T20:28:01.579Z,100887.03
2018-03-08T20:30:30.527Z,100890.55
2018-03-08T20:32:59.479Z,100892.13
2018-03-08T20:35:28.373Z,100903.28
2018-03-08T20:37:57.373Z,100907.81
2018-03-08T20:40:26.340Z,100922.16
2018-03-08T20:42:55.246Z,100922.80
2018-03-08T20:45:24.019Z,100922.88
2018-03-08T22:02:36.506Z,101005.36
2018-03-08T22:05:05.513Z,101009.78
2018-03-08T22:07:34.282Z,101012.55
2018-03-08T22:10:03.051Z,101011.16
2018-03-08T22:12:31.709Z,101006.16
2018-03-08T22:15:00.507Z,101010.10
2018-03-08T22:17:29.313Z,101012.68
2018-03-08T22:19:57.970Z,101018.12
2018-03-08T22:26:48.489Z,101014.64
2018-03-08T22:29:17.699Z,101017.23
2018-03-08T22:31:46.503Z,101026.21
2018-03-08T22:34:15.725Z,101026.30
2018-03-08T22:36:44.683Z,101032.14
2018-03-08T22:39:13.736Z,101041.06
2018-03-08T22:41:42.717Z,101045.81
2018-03-08T22:44:11.592Z,101046.00
2018-03-08T22:46:40.718Z,101054.09
2018-03-08T22:49:09.474Z,101057.88
2018-03-08T22:51:38.281Z,101055.41
2018-03-08T22:54:07.249Z,101062.47
2018-03-08T22:56:36.424Z,101059.38
2018-03-08T22:59:05.280Z,101065.98
2018-03-08T23:04:55.935Z,101085.44
2018-03-08T23:11:58.016Z,101087.06
2018-03-08T23:14:26.743Z,101083.82
2018-03-08T23:16:55.575Z,101092.41
2018-03-08T23:19:24.515Z,101085.80
2018-03-08T23:21:53.568Z,101094.16
2018-03-08T23:24:22.502Z,101091.06
2018-03-08T23:26:51.497Z,101095.83
2018-03-08T23:29:20.519Z,101097.19
2018-03-08T23:31:49.642Z,101100.28
2018-03-08T23:34:18.525Z,101100.84
2018-03-08T23:36:47.664Z,101099.84
2018-03-08T23:39:16.498Z,101104.17
2018-03-08T23:43:11.359Z,101110.41
2018-03-08T23:45:40.524Z,101107.77
2018-03-08T23:48:09.569Z,101099.74
2018-03-08T23:50:38.807Z,101104.08
2018-03-08T23:53:08.286Z,101105.95
2018-03-08T23:55:36.855Z,101104.44
2018-03-08T23:58:06.301Z,101106.25
